Time;durP1;ratioP1;P1;durP2;ratioP2;P2;SDS_P1;SDS_P2;PMS_P1;PMS_P2;Temp;Humidity;BMP_temperature;BMP_pressure;BME280_temperature;BME280_humidity;BME280_pressure;Samples;Min_cycle;Max_cycle;Signal;HPM_P1;HPM_P2
2024/01/15 00:01:58;;;;;;;7.97;1.80;;;;;;;;;;5032388;28;20037;-65
2024/01/15 00:04:24;;;;;;;7.50;1.73;;;;;;;;;;5029523;28;20038;-65
2024/01/15 00:06:49;;;;;;;6.33;1.40;;;;;;;;;;5032452;28;20386;-65
2024/01/15 00:09:14;;;;;;;11.67;1.50;;;;;;;;;;5031336;28;20032;-65
2024/01/15 00:11:40;;;;;;;3.37;1.23;;;;;;;;;;5031865;28;20103;-65
2024/01/15 00:14:05;;;;;;;5.33;1.20;;;;;;;;;;5031706;28;20025;-66
2024/01/15 00:16:30;;;;;;;4.43;1.23;;;;;;;;;;5031798;28;20052;-65
2024/01/15 00:18:56;;;;;;;14.50;1.40;;;;;;;;;;5031167;28;20044;-65
2024/01/15 00:21:21;;;;;;;4.00;1.23;;;;;;;;;;5030833;28;20646;-65
2024/01/15 00:23:46;;;;;;;6.27;1.30;;;;;;;;;;5031972;28;20038;-65
2024/01/15 00:26:12;;;;;;;5.33;0.97;;;;;;;;;;5030466;28;20808;-65
2024/01/15 00:28:37;;;;;;;6.67;1.13;;;;;;;;;;5031592;28;20041;-65
2024/01/15 00:31:03;;;;;;;6.37;1.10;;;;;;;;;;5031111;28;20013;-65
2024/01/15 00:33:28;;;;;;;7.10;1.13;;;;;;;;;;5030160;28;20032;-65
2024/01/15 00:35:54;;;;;;;7.33;1.30;;;;;;;;;;5028323;28;20104;-65
2024/01/15 00:38:20;;;;;;;6.47;1.17;;;;;;;;;;5030493;28;20032;-65
2024/01/15 00:40:45;;;;;;;7.70;1.13;;;;;;;;;;5030307;28;20036;-65
2024/01/15 00:43:10;;;;;;;4.20;0.80;;;;;;;;;;5031488;28;20045;-65
2024/01/15 00:45:35;;;;;;;4.43;0.93;;;;;;;;;;5030400;28;20454;-65
2024/01/15 00:48:01;;;;;;;6.37;0.93;;;;;;;;;;5030187;28;20101;-65
2024/01/15 00:50:26;;;;;;;3.77;0.93;;;;;;;;;;5029608;28;20446;-65
2024/01/15 00:52:51;;;;;;;9.43;1.57;;;;;;;;;;5028575;28;20030;-65
2024/01/15 00:55:17;;;;;;;7.53;1.10;;;;;;;;;;5031054;28;20026;-65
2024/01/15 00:57:42;;;;;;;4.93;1.07;;;;;;;;;;5030580;28;20064;-65
2024/01/15 01:00:09;;;;;;;6.90;1.20;;;;;;;;;;5030287;28;20462;-65
2024/01/15 01:02:34;;;;;;;4.23;0.93;;;;;;;;;;5027191;28;20504;-65
2024/01/15 01:04:59;;;;;;;9.27;1.20;;;;;;;;;;5030711;28;20068;-65
2024/01/15 01:07:24;;;;;;;6.70;1.33;;;;;;;;;;5030502;28;20044;-65
2024/01/15 01:09:51;;;;;;;6.10;1.20;;;;;;;;;;5029751;28;20029;-65
2024/01/15 01:12:16;;;;;;;7.83;1.30;;;;;;;;;;5029346;28;20025;-65
2024/01/15 01:14:41;;;;;;;3.17;1.17;;;;;;;;;;5029896;28;20689;-65
2024/01/15 01:17:07;;;;;;;4.83;1.10;;;;;;;;;;5030589;28;20029;-65
2024/01/15 01:19:32;;;;;;;6.37;0.87;;;;;;;;;;5029492;28;20079;-65
2024/01/15 01:21:57;;;;;;;9.70;1.53;;;;;;;;;;5030535;28;20044;-62
2024/01/15 01:24:22;;;;;;;11.80;1.90;;;;;;;;;;5028835;28;20057;-66
2024/01/15 01:26:48;;;;;;;6.80;1.30;;;;;;;;;;5029648;28;20469;-65
2024/01/15 01:29:14;;;;;;;7.10;1.40;;;;;;;;;;5028160;28;20033;-65
2024/01/15 01:31:42;;;;;;;4.53;0.97;;;;;;;;;;5030619;28;20044;-66
2024/01/15 01:34:07;;;;;;;9.03;1.90;;;;;;;;;;5029868;28;20437;-66
2024/01/15 01:36:33;;;;;;;8.90;1.00;;;;;;;;;;5029072;28;20055;-65
2024/01/15 01:38:58;;;;;;;6.57;1.27;;;;;;;;;;5030884;28;20034;-65
2024/01/15 01:41:26;;;;;;;11.67;1.43;;;;;;;;;;5029922;28;20389;-66
2024/01/15 01:43:51;;;;;;;9.13;1.20;;;;;;;;;;5029635;28;20034;-65
2024/01/15 01:46:17;;;;;;;11.20;1.40;;;;;;;;;;5029364;28;20041;-65
2024/01/15 01:48:42;;;;;;;9.63;1.20;;;;;;;;;;5028809;28;20041;-65
2024/01/15 01:51:08;;;;;;;4.67;1.03;;;;;;;;;;5029616;28;20021;-65
2024/01/15 01:53:34;;;;;;;10.23;1.87;;;;;;;;;;5030376;28;20017;-65
2024/01/15 01:56:00;;;;;;;6.77;1.10;;;;;;;;;;5028648;28;20033;-65
2024/01/15 01:58:27;;;;;;;8.20;1.20;;;;;;;;;;5030257;28;20434;-65
2024/01/15 02:00:52;;;;;;;8.47;1.00;;;;;;;;;;5029145;28;20029;-65
2024/01/15 02:03:18;;;;;;;6.60;1.53;;;;;;;;;;5030176;28;20080;-65
2024/01/15 02:05:44;;;;;;;7.20;1.57;;;;;;;;;;5029795;28;20099;-66
2024/01/15 02:08:10;;;;;;;6.07;1.10;;;;;;;;;;5028206;28;20444;-66
2024/01/15 02:10:35;;;;;;;6.87;1.03;;;;;;;;;;5030940;28;20017;-67
2024/01/15 02:13:00;;;;;;;7.90;1.30;;;;;;;;;;5029118;28;20021;-66
2024/01/15 02:15:25;;;;;;;5.93;1.00;;;;;;;;;;5029095;28;20053;-66
2024/01/15 02:17:57;;;;;;;6.13;1.03;;;;;;;;;;5029443;28;20425;-66
2024/01/15 02:20:22;;;;;;;;;;;;;;;;;;5031756;28;20421;-66
2024/01/15 02:22:47;;;;;;;6.80;1.30;;;;;;;;;;5029225;28;20354;-65
2024/01/15 02:25:12;;;;;;;9.53;1.10;;;;;;;;;;5029930;28;20064;-65
2024/01/15 02:27:38;;;;;;;10.77;1.60;;;;;;;;;;5029108;28;20032;-65
2024/01/15 02:30:06;;;;;;;8.60;1.53;;;;;;;;;;5026403;28;20409;-65
2024/01/15 02:32:31;;;;;;;4.00;1.10;;;;;;;;;;5028304;28;20014;-65
2024/01/15 02:34:56;;;;;;;5.10;1.50;;;;;;;;;;5028966;28;20539;-66
2024/01/15 02:37:22;;;;;;;9.00;1.30;;;;;;;;;;5028789;28;20405;-65
2024/01/15 02:39:47;;;;;;;3.03;0.90;;;;;;;;;;5029868;28;20045;-65
2024/01/15 02:42:12;;;;;;;4.30;0.80;;;;;;;;;;5029150;28;20034;-65
2024/01/15 02:44:37;;;;;;;3.90;1.13;;;;;;;;;;5029397;28;20033;-66
2024/01/15 02:47:03;;;;;;;11.50;1.47;;;;;;;;;;5029525;28;20489;-66
2024/01/15 02:49:28;;;;;;;8.93;1.20;;;;;;;;;;5031127;28;20421;-66
2024/01/15 02:51:53;;;;;;;1.70;0.73;;;;;;;;;;5033157;28;20034;-65
2024/01/15 02:54:18;;;;;;;5.03;0.80;;;;;;;;;;5032957;28;20386;-66
2024/01/15 02:56:44;;;;;;;10.00;0.93;;;;;;;;;;5032952;28;20032;-66
2024/01/15 02:59:09;;;;;;;2.73;0.63;;;;;;;;;;5033006;28;20043;-66
2024/01/15 03:01:34;;;;;;;3.73;0.80;;;;;;;;;;5033012;28;20017;-66
2024/01/15 03:03:59;;;;;;;4.10;1.13;;;;;;;;;;5033912;28;20033;-66
2024/01/15 03:06:25;;;;;;;3.47;1.03;;;;;;;;;;5031870;28;20052;-66
2024/01/15 03:08:50;;;;;;;12.03;1.73;;;;;;;;;;5030871;28;20037;-66
2024/01/15 03:11:15;;;;;;;2.53;1.10;;;;;;;;;;5033636;28;20070;-66
2024/01/15 03:13:40;;;;;;;3.20;1.07;;;;;;;;;;5032439;28;20033;-66
2024/01/15 03:16:06;;;;;;;4.07;1.00;;;;;;;;;;5031236;28;20040;-66
2024/01/15 03:18:31;;;;;;;3.10;0.83;;;;;;;;;;5033990;28;20509;-66
2024/01/15 03:20:56;;;;;;;7.23;1.20;;;;;;;;;;5032580;28;20057;-66
2024/01/15 03:23:22;;;;;;;4.17;1.00;;;;;;;;;;5032265;28;20060;-66
2024/01/15 03:25:47;;;;;;;6.47;0.90;;;;;;;;;;5032858;28;20140;-67
2024/01/15 03:28:12;;;;;;;5.87;1.53;;;;;;;;;;5031781;28;20040;-66
2024/01/15 03:30:37;;;;;;;13.43;1.63;;;;;;;;;;5031984;28;20014;-66
2024/01/15 03:33:03;;;;;;;4.87;1.57;;;;;;;;;;5032565;28;20367;-66
2024/01/15 03:35:30;;;;;;;7.47;1.30;;;;;;;;;;5031117;28;20025;-66
2024/01/15 03:37:55;;;;;;;11.63;1.77;;;;;;;;;;5032366;28;20029;-66
2024/01/15 03:40:21;;;;;;;4.37;1.00;;;;;;;;;;5032525;28;20048;-66
2024/01/15 03:42:46;;;;;;;5.10;1.27;;;;;;;;;;5031132;28;20520;-62
2024/01/15 03:45:11;;;;;;;9.00;1.77;;;;;;;;;;5032629;28;20029;-62
2024/01/15 03:47:36;;;;;;;6.93;1.57;;;;;;;;;;5032540;28;20032;-61
2024/01/15 03:50:02;;;;;;;3.60;0.90;;;;;;;;;;5031922;28;20018;-61
2024/01/15 03:52:27;;;;;;;13.10;1.20;;;;;;;;;;5032439;28;20040;-61
2024/01/15 03:54:52;;;;;;;6.13;1.37;;;;;;;;;;5032283;28;20018;-61
2024/01/15 03:57:17;;;;;;;7.47;1.60;;;;;;;;;;5032467;28;20037;-62
2024/01/15 03:59:43;;;;;;;8.30;1.47;;;;;;;;;;5032839;28;20033;-62
2024/01/15 04:02:08;;;;;;;5.57;1.00;;;;;;;;;;5033170;28;20121;-61
2024/01/15 04:04:34;;;;;;;6.10;1.30;;;;;;;;;;5032196;28;20389;-61
2024/01/15 04:06:59;;;;;;;8.50;1.20;;;;;;;;;;5031808;28;20033;-62
2024/01/15 04:09:24;;;;;;;5.93;0.97;;;;;;;;;;5031825;28;20036;-62
2024/01/15 04:11:49;;;;;;;8.97;1.07;;;;;;;;;;5032595;28;20060;-62
2024/01/15 04:14:15;;;;;;;6.40;1.03;;;;;;;;;;5029844;28;20518;-61
2024/01/15 04:16:40;;;;;;;10.17;1.40;;;;;;;;;;5032249;28;20072;-61
2024/01/15 04:19:05;;;;;;;6.40;1.13;;;;;;;;;;5031391;28;20028;-62
2024/01/15 04:21:30;;;;;;;14.00;1.50;;;;;;;;;;5031511;28;20497;-61
2024/01/15 04:23:56;;;;;;;8.47;1.27;;;;;;;;;;5031337;28;20033;-62
2024/01/15 04:26:21;;;;;;;3.93;0.90;;;;;;;;;;5029033;28;20033;-61
2024/01/15 04:28:46;;;;;;;6.07;1.03;;;;;;;;;;5031041;28;20029;-62
2024/01/15 04:31:20;;;;;;;4.53;0.73;;;;;;;;;;5030975;28;20018;-61
2024/01/15 04:33:45;;;;;;;3.37;1.00;;;;;;;;;;5030826;28;20014;-62
2024/01/15 04:36:10;;;;;;;7.77;1.23;;;;;;;;;;5031852;28;21441;-61
2024/01/15 04:38:36;;;;;;;3.17;1.00;;;;;;;;;;5030754;28;20071;-61
2024/01/15 04:41:01;;;;;;;4.80;1.47;;;;;;;;;;5030528;28;20022;-61
2024/01/15 04:43:26;;;;;;;7.70;1.30;;;;;;;;;;5030037;28;20036;-61
2024/01/15 04:45:52;;;;;;;5.23;1.53;;;;;;;;;;5030132;28;20025;-62
2024/01/15 04:48:17;;;;;;;7.97;1.50;;;;;;;;;;5030125;28;20025;-61
2024/01/15 04:50:42;;;;;;;11.33;1.50;;;;;;;;;;5031362;28;20091;-60
2024/01/15 04:53:07;;;;;;;8.70;1.37;;;;;;;;;;5031181;28;20029;-67
2024/01/15 04:55:33;;;;;;;7.33;1.33;;;;;;;;;;5031025;28;20017;-66
2024/01/15 04:57:58;;;;;;;8.53;1.37;;;;;;;;;;5028795;28;20460;-67
2024/01/15 05:00:23;;;;;;;11.80;1.67;;;;;;;;;;5030599;28;20029;-67
2024/01/15 05:02:48;;;;;;;6.13;1.60;;;;;;;;;;5030974;28;20113;-67
2024/01/15 05:05:13;;;;;;;9.43;1.77;;;;;;;;;;5031437;28;20083;-67
2024/01/15 05:07:39;;;;;;;8.87;1.70;;;;;;;;;;5030702;28;20036;-66
2024/01/15 05:10:04;;;;;;;6.67;1.40;;;;;;;;;;5031135;28;20056;-68
2024/01/15 05:12:30;;;;;;;7.67;1.47;;;;;;;;;;5028582;28;20017;-67
2024/01/15 05:14:55;;;;;;;9.33;1.30;;;;;;;;;;5031132;28;20049;-67
2024/01/15 05:17:20;;;;;;;8.00;1.50;;;;;;;;;;5030176;28;20741;-67
2024/01/15 05:19:45;;;;;;;6.57;1.03;;;;;;;;;;5030865;28;20078;-67
2024/01/15 05:22:11;;;;;;;9.13;1.77;;;;;;;;;;5030099;28;20017;-67
2024/01/15 05:24:36;;;;;;;6.17;1.17;;;;;;;;;;5030885;28;20025;-67
2024/01/15 05:27:01;;;;;;;13.80;1.47;;;;;;;;;;5029702;28;20425;-64
2024/01/15 05:29:26;;;;;;;6.63;1.00;;;;;;;;;;5028483;28;20108;-65
2024/01/15 05:31:52;;;;;;;10.83;1.53;;;;;;;;;;5029773;28;20086;-65
2024/01/15 05:34:17;;;;;;;5.47;1.43;;;;;;;;;;5029582;28;20037;-64
2024/01/15 05:36:42;;;;;;;13.37;1.60;;;;;;;;;;5030456;28;20104;-64
2024/01/15 05:39:08;;;;;;;9.60;1.03;;;;;;;;;;5030961;28;20037;-64
2024/01/15 05:41:33;;;;;;;5.67;1.00;;;;;;;;;;5029121;28;20036;-64
2024/01/15 05:43:58;;;;;;;6.13;1.00;;;;;;;;;;5029560;28;20083;-64
2024/01/15 05:46:23;;;;;;;5.30;1.03;;;;;;;;;;5030253;28;20021;-64
2024/01/15 05:48:49;;;;;;;9.20;1.20;;;;;;;;;;5029441;28;20043;-65
2024/01/15 05:51:14;;;;;;;8.43;1.47;;;;;;;;;;5029072;28;20018;-68
2024/01/15 05:53:41;;;;;;;7.80;1.63;;;;;;;;;;5030550;28;20099;-67
2024/01/15 05:56:06;;;;;;;4.10;1.40;;;;;;;;;;5029342;28;20060;-67
2024/01/15 05:58:32;;;;;;;4.67;1.00;;;;;;;;;;5030449;28;20064;-68
2024/01/15 06:00:57;;;;;;;8.57;1.70;;;;;;;;;;5030655;28;20022;-68
2024/01/15 06:03:22;;;;;;;4.27;1.10;;;;;;;;;;5030677;28;20068;-61
2024/01/15 06:05:47;;;;;;;9.37;1.63;;;;;;;;;;5030225;28;20025;-62
2024/01/15 06:08:14;;;;;;;10.83;1.57;;;;;;;;;;5029659;28;20075;-62
2024/01/15 06:10:39;;;;;;;5.37;1.00;;;;;;;;;;5030069;28;20030;-62
2024/01/15 06:13:05;;;;;;;5.00;1.17;;;;;;;;;;5028861;28;20092;-63
2024/01/15 06:15:30;;;;;;;5.13;1.27;;;;;;;;;;5027745;28;20097;-62
2024/01/15 06:17:55;;;;;;;6.43;1.37;;;;;;;;;;5029981;28;20033;-63
2024/01/15 06:20:21;;;;;;;5.43;1.27;;;;;;;;;;5030032;28;20111;-62
2024/01/15 06:22:46;;;;;;;6.60;1.00;;;;;;;;;;5030081;28;20053;-62
2024/01/15 06:25:11;;;;;;;5.53;1.00;;;;;;;;;;5033275;28;20021;-62
2024/01/15 06:27:36;;;;;;;6.67;0.90;;;;;;;;;;5033367;28;20017;-61
2024/01/15 06:30:02;;;;;;;5.30;1.40;;;;;;;;;;5033089;28;20033;-61
2024/01/15 06:32:27;;;;;;;9.17;1.57;;;;;;;;;;5033397;28;20632;-61
2024/01/15 06:34:52;;;;;;;6.77;1.27;;;;;;;;;;5033878;28;20061;-62
2024/01/15 06:37:20;;;;;;;10.17;1.00;;;;;;;;;;5033553;28;20021;-62
2024/01/15 06:39:45;;;;;;;7.37;1.60;;;;;;;;;;5033170;28;20026;-62
2024/01/15 06:42:10;;;;;;;4.67;0.93;;;;;;;;;;5031997;28;20355;-62
2024/01/15 06:44:35;;;;;;;4.03;1.20;;;;;;;;;;5031328;28;20071;-61
2024/01/15 06:47:02;;;;;;;16.47;1.60;;;;;;;;;;5033154;28;20021;-61
2024/01/15 06:49:30;;;;;;;2.60;0.80;;;;;;;;;;5032336;28;20025;-61
2024/01/15 06:51:56;;;;;;;4.43;0.87;;;;;;;;;;5032315;28;20071;-61
2024/01/15 06:54:21;;;;;;;6.53;1.03;;;;;;;;;;5032554;28;20489;-61
2024/01/15 06:56:46;;;;;;;4.63;1.20;;;;;;;;;;5033270;28;20028;-62
2024/01/15 06:59:11;;;;;;;4.60;1.00;;;;;;;;;;5032672;28;20041;-62
2024/01/15 07:01:37;;;;;;;10.60;1.27;;;;;;;;;;5032386;28;20028;-62
2024/01/15 07:04:03;;;;;;;3.20;0.90;;;;;;;;;;5033222;28;20381;-61
2024/01/15 07:06:28;;;;;;;8.97;1.20;;;;;;;;;;5033663;28;20025;-61
2024/01/15 07:08:53;;;;;;;1.43;0.70;;;;;;;;;;5031824;28;20363;-61
2024/01/15 07:11:19;;;;;;;8.27;1.07;;;;;;;;;;5032656;28;20519;-62
2024/01/15 07:13:44;;;;;;;5.17;1.37;;;;;;;;;;5032261;28;20437;-61
2024/01/15 07:16:09;;;;;;;2.30;0.90;;;;;;;;;;5032778;28;20441;-63
2024/01/15 07:18:34;;;;;;;5.73;1.20;;;;;;;;;;5031685;28;20021;-62
2024/01/15 07:21:01;;;;;;;7.07;1.07;;;;;;;;;;5032331;28;20053;-61
2024/01/15 07:23:26;;;;;;;3.60;1.10;;;;;;;;;;5033403;28;20025;-62
2024/01/15 07:25:51;;;;;;;6.27;1.00;;;;;;;;;;5032441;28;20071;-63
2024/01/15 07:28:17;;;;;;;5.23;0.70;;;;;;;;;;5032473;28;20108;-62
2024/01/15 07:30:42;;;;;;;3.87;1.00;;;;;;;;;;5031891;28;20025;-62
2024/01/15 07:33:07;;;;;;;8.03;1.20;;;;;;;;;;5032825;28;20486;-62
2024/01/15 07:35:32;;;;;;;9.40;1.70;;;;;;;;;;5032124;28;20505;-63
2024/01/15 07:37:58;;;;;;;0.93;0.67;;;;;;;;;;5031898;28;20022;-62
2024/01/15 07:40:24;;;;;;;7.47;1.50;;;;;;;;;;5031173;28;20095;-62
2024/01/15 07:42:49;;;;;;;7.23;1.43;;;;;;;;;;5032202;28;20031;-61
2024/01/15 07:45:15;;;;;;;4.17;1.10;;;;;;;;;;5032713;28;20025;-62
2024/01/15 07:47:40;;;;;;;5.83;1.40;;;;;;;;;;5031829;28;20671;-62
2024/01/15 07:50:05;;;;;;;5.37;1.10;;;;;;;;;;5032842;28;20029;-62
2024/01/15 07:52:31;;;;;;;8.83;1.50;;;;;;;;;;5032799;28;20025;-60
2024/01/15 07:54:56;;;;;;;10.83;1.50;;;;;;;;;;5029141;28;20025;-60
2024/01/15 07:57:22;;;;;;;13.87;2.10;;;;;;;;;;5032592;28;20025;-61
2024/01/15 07:59:47;;;;;;;8.87;1.70;;;;;;;;;;5032729;28;20017;-60
2024/01/15 08:02:13;;;;;;;7.60;1.70;;;;;;;;;;5032384;28;20678;-61
2024/01/15 08:04:39;;;;;;;10.40;1.70;;;;;;;;;;5031384;28;20031;-61
2024/01/15 08:07:05;;;;;;;9.23;1.90;;;;;;;;;;5031727;28;20436;-61
2024/01/15 08:09:31;;;;;;;8.60;1.90;;;;;;;;;;5031748;28;20025;-61
2024/01/15 08:11:56;;;;;;;13.90;2.23;;;;;;;;;;5032132;28;20488;-60
2024/01/15 08:14:21;;;;;;;10.10;1.67;;;;;;;;;;5031596;28;20536;-60
2024/01/15 08:16:46;;;;;;;9.03;1.83;;;;;;;;;;5031724;28;20025;-61
2024/01/15 08:19:12;;;;;;;5.47;1.30;;;;;;;;;;5030164;28;20504;-62
2024/01/15 08:21:37;;;;;;;8.83;1.73;;;;;;;;;;5031914;28;20386;-62
2024/01/15 08:24:02;;;;;;;5.13;2.10;;;;;;;;;;5029741;28;20025;-62
2024/01/15 08:26:28;;;;;;;7.30;1.87;;;;;;;;;;5030985;28;20099;-61
2024/01/15 08:28:53;;;;;;;4.33;1.50;;;;;;;;;;5030458;28;20028;-60
2024/01/15 08:31:19;;;;;;;3.00;1.10;;;;;;;;;;5031355;28;20068;-61
2024/01/15 08:33:44;;;;;;;13.00;2.43;;;;;;;;;;5030683;28;20013;-61
2024/01/15 08:36:10;;;;;;;7.20;1.47;;;;;;;;;;5031056;28;20029;-61
2024/01/15 08:38:35;;;;;;;4.30;1.80;;;;;;;;;;5032132;28;20438;-61
2024/01/15 08:41:00;;;;;;;10.60;2.37;;;;;;;;;;5031704;28;20029;-61
2024/01/15 08:43:26;;;;;;;6.17;1.13;;;;;;;;;;5031192;28;20025;-61
2024/01/15 08:45:52;;;;;;;2.60;1.20;;;;;;;;;;5031037;28;20025;-60
2024/01/15 08:48:17;;;;;;;3.73;1.47;;;;;;;;;;5030143;28;20029;-62
2024/01/15 08:50:42;;;;;;;3.60;1.10;;;;;;;;;;5030853;28;20025;-61
2024/01/15 08:53:07;;;;;;;8.43;1.40;;;;;;;;;;5031374;28;20049;-61
2024/01/15 08:55:33;;;;;;;8.43;1.60;;;;;;;;;;5030045;28;20030;-61
2024/01/15 08:57:59;;;;;;;6.33;1.30;;;;;;;;;;5030628;28;20025;-60
2024/01/15 09:00:24;;;;;;;2.83;1.00;;;;;;;;;;5030961;28;20018;-60
2024/01/15 09:02:49;;;;;;;4.17;1.30;;;;;;;;;;5030259;28;20129;-61
2024/01/15 09:05:14;;;;;;;4.27;1.50;;;;;;;;;;5029825;28;20040;-61
2024/01/15 09:07:40;;;;;;;6.87;2.57;;;;;;;;;;5028063;28;20436;-60
2024/01/15 09:10:05;;;;;;;7.83;1.57;;;;;;;;;;5025337;28;20032;-65
2024/01/15 09:12:30;;;;;;;7.30;1.83;;;;;;;;;;5030565;28;20025;-60
2024/01/15 09:14:56;;;;;;;5.43;1.87;;;;;;;;;;5031400;28;20018;-60
2024/01/15 09:17:23;;;;;;;7.90;1.60;;;;;;;;;;5030677;28;20398;-61
2024/01/15 09:19:48;;;;;;;6.10;1.70;;;;;;;;;;5029253;28;20107;-61
2024/01/15 09:22:14;;;;;;;10.00;1.87;;;;;;;;;;5030780;28;20045;-61
2024/01/15 09:24:42;;;;;;;7.73;1.20;;;;;;;;;;5030626;28;20025;-61
2024/01/15 09:27:07;;;;;;;5.37;1.33;;;;;;;;;;5031018;28;20799;-61
2024/01/15 09:29:32;;;;;;;7.40;1.70;;;;;;;;;;5030728;28;20014;-62
2024/01/15 09:31:58;;;;;;;9.40;1.20;;;;;;;;;;5029130;28;20036;-62
2024/01/15 09:34:23;;;;;;;8.90;1.50;;;;;;;;;;5030441;28;20021;-62
2024/01/15 09:36:49;;;;;;;6.03;1.33;;;;;;;;;;5006688;28;20053;-61
2024/01/15 09:39:15;;;;;;;9.00;2.07;;;;;;;;;;5030629;28;20068;-61
2024/01/15 09:41:40;;;;;;;5.37;1.23;;;;;;;;;;5029901;28;20030;-61
2024/01/15 09:44:07;;;;;;;10.33;1.77;;;;;;;;;;5030871;28;20372;-61
2024/01/15 09:46:33;;;;;;;12.07;1.60;;;;;;;;;;5029859;28;20026;-61
2024/01/15 09:48:59;;;;;;;6.13;1.40;;;;;;;;;;5030709;28;20030;-62
2024/01/15 09:51:24;;;;;;;7.43;1.07;;;;;;;;;;5029615;28;20059;-61
2024/01/15 09:53:50;;;;;;;8.10;1.23;;;;;;;;;;5030595;28;20025;-61
2024/01/15 09:56:16;;;;;;;3.27;0.93;;;;;;;;;;5030524;28;20030;-60
2024/01/15 09:58:42;;;;;;;11.40;1.83;;;;;;;;;;5030028;28;20083;-61
2024/01/15 10:01:07;;;;;;;1.87;0.83;;;;;;;;;;5030472;28;20026;-61
2024/01/15 10:03:33;;;;;;;5.50;1.33;;;;;;;;;;5030013;28;20033;-62
2024/01/15 10:05:59;;;;;;;12.10;1.40;;;;;;;;;;5010900;28;20140;-61
2024/01/15 10:08:25;;;;;;;4.20;1.07;;;;;;;;;;5027245;28;20022;-63
2024/01/15 10:10:50;;;;;;;9.63;2.13;;;;;;;;;;5030463;28;20029;-62
2024/01/15 10:13:15;;;;;;;8.83;1.90;;;;;;;;;;5029971;28;20014;-62
2024/01/15 10:15:42;;;;;;;5.83;1.90;;;;;;;;;;5028336;28;20545;-62
2024/01/15 10:18:08;;;;;;;9.60;1.83;;;;;;;;;;5030571;28;20470;-63
2024/01/15 10:20:33;;;;;;;4.07;1.30;;;;;;;;;;5026599;28;20132;-61
2024/01/15 10:22:58;;;;;;;6.93;1.60;;;;;;;;;;5029817;28;20052;-61
2024/01/15 10:25:25;;;;;;;3.63;1.30;;;;;;;;;;5030118;28;20021;-60
2024/01/15 10:28:03;;;;;;;9.93;2.00;;;;;;;;;;5029651;28;20037;-61
2024/01/15 10:30:29;;;;;;;5.63;1.77;;;;;;;;;;5029791;28;20080;-62
2024/01/15 10:33:01;;;;;;;8.43;1.60;;;;;;;;;;5027900;28;20116;-61
2024/01/15 10:35:27;;;;;;;8.07;2.63;;;;;;;;;;5030032;28;20026;-61
2024/01/15 10:37:52;;;;;;;6.20;2.07;;;;;;;;;;5028737;28;20079;-60
2024/01/15 10:40:18;;;;;;;6.73;2.20;;;;;;;;;;5026771;28;20030;-61
2024/01/15 10:42:43;;;;;;;8.00;2.37;;;;;;;;;;5029530;28;20057;-61
2024/01/15 10:45:09;;;;;;;6.77;2.07;;;;;;;;;;5030351;28;20022;-66
2024/01/15 10:47:35;;;;;;;10.47;2.57;;;;;;;;;;5029192;28;20509;-66
2024/01/15 10:50:01;;;;;;;11.90;2.87;;;;;;;;;;5030264;28;20386;-66
2024/01/15 10:52:27;;;;;;;8.77;1.83;;;;;;;;;;5029667;28;20022;-66
2024/01/15 10:54:52;;;;;;;6.23;1.83;;;;;;;;;;5029799;28;20064;-66
2024/01/15 10:57:18;;;;;;;8.77;1.70;;;;;;;;;;5029283;28;20057;-65
2024/01/15 10:59:44;;;;;;;8.20;1.63;;;;;;;;;;5029776;28;20030;-65
2024/01/15 11:02:10;;;;;;;5.10;1.30;;;;;;;;;;5029477;28;20030;-66
2024/01/15 11:04:35;;;;;;;7.93;1.30;;;;;;;;;;5028531;28;20037;-65
2024/01/15 11:07:02;;;;;;;4.97;1.37;;;;;;;;;;5029239;28;20382;-65
2024/01/15 11:09:29;;;;;;;6.47;1.00;;;;;;;;;;5029884;28;20036;-66
2024/01/15 11:12:10;;;;;;;10.70;2.27;;;;;;;;;;5032821;28;20076;-65
2024/01/15 11:14:36;;;;;;;5.22;1.50;;;;;;;;;;5032516;28;20030;-66
2024/01/15 11:17:01;;;;;;;8.83;2.00;;;;;;;;;;5033616;28;20303;-65
2024/01/15 11:19:35;;;;;;;7.77;1.60;;;;;;;;;;5030029;28;20056;-65
2024/01/15 11:22:00;;;;;;;9.27;1.30;;;;;;;;;;5029474;28;20053;-65
2024/01/15 11:24:39;;;;;;;9.00;1.70;;;;;;;;;;5031942;28;20115;-65
2024/01/15 11:27:05;;;;;;;6.50;1.53;;;;;;;;;;5032117;28;20025;-66
2024/01/15 11:29:32;;;;;;;3.17;1.13;;;;;;;;;;5032644;28;20021;-65
2024/01/15 11:31:59;;;;;;;8.37;1.20;;;;;;;;;;5033277;28;20032;-66
2024/01/15 11:34:45;;;;;;;11.43;1.47;;;;;;;;;;5030968;28;20103;-65
2024/01/15 11:37:11;;;;;;;5.03;1.27;;;;;;;;;;5026716;28;20398;-65
2024/01/15 11:39:42;;;;;;;8.50;1.50;;;;;;;;;;5033370;28;20033;-66
2024/01/15 11:42:08;;;;;;;4.85;1.20;;;;;;;;;;5033078;28;20378;-65
2024/01/15 11:44:33;;;;;;;9.77;1.30;;;;;;;;;;5032400;28;20029;-65
2024/01/15 11:47:02;;;;;;;5.90;1.40;;;;;;;;;;5031953;28;20017;-66
2024/01/15 11:49:31;;;;;;;6.70;1.30;;;;;;;;;;5031535;28;20021;-65
2024/01/15 11:51:57;;;;;;;12.67;1.53;;;;;;;;;;5032815;28;20017;-66
2024/01/15 11:54:23;;;;;;;4.70;1.30;;;;;;;;;;5032950;28;20014;-66
2024/01/15 11:56:49;;;;;;;9.40;1.80;;;;;;;;;;5030888;28;20018;-65
2024/01/15 11:59:14;;;;;;;7.07;1.30;;;;;;;;;;5032530;28;20025;-66
2024/01/15 12:01:39;;;;;;;9.60;1.17;;;;;;;;;;5031470;28;20033;-65
2024/01/15 12:04:04;;;;;;;7.63;1.57;;;;;;;;;;5029591;28;20076;-65
2024/01/15 12:06:30;;;;;;;7.20;1.50;;;;;;;;;;5030128;28;20049;-65
2024/01/15 12:09:07;;;;;;;4.07;1.27;;;;;;;;;;5032367;28;20024;-65
2024/01/15 12:11:35;;;;;;;4.20;1.07;;;;;;;;;;5032296;28;20079;-65
2024/01/15 12:14:00;;;;;;;2.53;0.93;;;;;;;;;;5031852;28;20091;-65
2024/01/15 12:16:25;;;;;;;4.83;1.03;;;;;;;;;;5030554;28;20014;-66
2024/01/15 12:18:51;;;;;;;6.03;1.10;;;;;;;;;;5028263;28;20052;-66
2024/01/15 12:21:16;;;;;;;8.97;1.60;;;;;;;;;;5030947;28;20056;-66
2024/01/15 12:23:41;;;;;;;5.43;1.13;;;;;;;;;;5031684;28;20382;-66
2024/01/15 12:26:06;;;;;;;6.70;1.37;;;;;;;;;;5029693;28;20105;-65
2024/01/15 12:28:32;;;;;;;5.67;1.30;;;;;;;;;;5032405;28;20029;-65
2024/01/15 12:30:59;;;;;;;4.80;1.00;;;;;;;;;;5031384;28;20500;-66
2024/01/15 12:33:24;;;;;;;15.60;1.10;;;;;;;;;;5030512;28;20075;-65
2024/01/15 12:35:52;;;;;;;7.63;1.53;;;;;;;;;;5030262;28;20096;-66
2024/01/15 12:38:18;;;;;;;4.20;1.20;;;;;;;;;;5031061;28;20021;-65
2024/01/15 12:40:46;;;;;;;11.27;1.50;;;;;;;;;;5028537;28;20029;-65
2024/01/15 12:43:11;;;;;;;4.33;1.10;;;;;;;;;;5031276;28;20155;-66
2024/01/15 12:45:37;;;;;;;7.90;1.20;;;;;;;;;;5030928;28;20437;-66
2024/01/15 12:48:03;;;;;;;7.10;1.83;;;;;;;;;;5030929;28;20032;-65
2024/01/15 12:50:29;;;;;;;3.03;1.10;;;;;;;;;;5031132;28;20025;-66
2024/01/15 12:52:54;;;;;;;2.77;1.13;;;;;;;;;;5030329;28;20092;-65
2024/01/15 12:55:19;;;;;;;10.97;1.60;;;;;;;;;;5030557;28;20025;-66
2024/01/15 12:57:45;;;;;;;6.80;1.10;;;;;;;;;;5030794;28;20394;-66
2024/01/15 13:00:12;;;;;;;4.77;1.30;;;;;;;;;;5030386;28;20040;-66
2024/01/15 13:02:41;;;;;;;8.83;1.77;;;;;;;;;;5029642;28;20535;-66
2024/01/15 13:05:08;;;;;;;8.93;1.80;;;;;;;;;;5029710;28;20710;-62
2024/01/15 13:07:33;;;;;;;5.07;1.07;;;;;;;;;;5030539;28;20540;-61
2024/01/15 13:09:59;;;;;;;7.97;1.67;;;;;;;;;;5030598;28;20022;-62
2024/01/15 13:12:24;;;;;;;6.13;1.20;;;;;;;;;;5027987;28;20022;-61
2024/01/15 13:14:49;;;;;;;4.47;1.70;;;;;;;;;;5030070;28;20035;-62
2024/01/15 13:17:14;;;;;;;4.83;1.53;;;;;;;;;;5029800;28;20055;-62
2024/01/15 13:19:40;;;;;;;3.60;1.23;;;;;;;;;;5030391;28;20061;-62
2024/01/15 13:22:07;;;;;;;3.23;1.00;;;;;;;;;;5029079;28;20105;-62
2024/01/15 13:24:33;;;;;;;7.87;1.97;;;;;;;;;;5029989;28;20120;-62
2024/01/15 13:26:58;;;;;;;4.20;1.33;;;;;;;;;;5030007;28;20547;-62
2024/01/15 13:29:23;;;;;;;2.70;1.17;;;;;;;;;;5030699;28;20021;-62
2024/01/15 13:31:49;;;;;;;6.87;1.70;;;;;;;;;;5028715;28;20021;-62
2024/01/15 13:34:14;;;;;;;8.10;1.50;;;;;;;;;;5027999;28;20018;-61
2024/01/15 13:36:39;;;;;;;5.57;1.40;;;;;;;;;;5028079;28;20029;-62
2024/01/15 13:39:08;;;;;;;4.53;1.63;;;;;;;;;;5030640;28;20389;-63
2024/01/15 13:41:33;;;;;;;3.90;1.20;;;;;;;;;;5030815;28;20052;-62
2024/01/15 13:43:59;;;;;;;3.17;0.90;;;;;;;;;;5028058;28;20655;-62
2024/01/15 13:46:29;;;;;;;5.20;1.60;;;;;;;;;;5027540;28;20101;-61
2024/01/15 13:48:54;;;;;;;8.13;1.70;;;;;;;;;;5030850;28;20504;-63
2024/01/15 13:51:22;;;;;;;7.40;1.60;;;;;;;;;;5030798;28;20029;-62
2024/01/15 13:53:47;;;;;;;3.27;0.90;;;;;;;;;;5031162;28;20470;-63
2024/01/15 13:56:12;;;;;;;4.03;1.00;;;;;;;;;;5030105;28;20028;-63
2024/01/15 13:58:37;;;;;;;2.90;1.07;;;;;;;;;;5030500;28;20017;-62
2024/01/15 14:01:05;;;;;;;3.40;1.23;;;;;;;;;;5029199;28;20029;-62
2024/01/15 14:03:32;;;;;;;2.30;0.90;;;;;;;;;;5030073;28;20116;-62
2024/01/15 14:05:57;;;;;;;5.07;1.67;;;;;;;;;;5030372;28;20037;-62
2024/01/15 14:08:23;;;;;;;5.73;1.40;;;;;;;;;;5029729;28;20028;-61
2024/01/15 14:10:48;;;;;;;2.47;1.20;;;;;;;;;;5030530;28;20022;-62
2024/01/15 14:13:14;;;;;;;6.20;1.50;;;;;;;;;;5029844;28;20030;-62
2024/01/15 14:15:39;;;;;;;6.00;1.37;;;;;;;;;;5028983;28;20028;-66
2024/01/15 14:18:05;;;;;;;2.70;1.20;;;;;;;;;;5030272;28;20079;-66
2024/01/15 14:20:30;;;;;;;4.07;1.30;;;;;;;;;;5029624;28;20048;-66
2024/01/15 14:22:56;;;;;;;9.00;1.70;;;;;;;;;;5029083;28;20022;-66
2024/01/15 14:25:21;;;;;;;4.03;1.67;;;;;;;;;;5030085;28;20052;-65
2024/01/15 14:27:47;;;;;;;4.27;1.60;;;;;;;;;;5030310;28;20030;-65
2024/01/15 14:30:13;;;;;;;2.13;1.10;;;;;;;;;;5027670;28;20021;-65
2024/01/15 14:32:38;;;;;;;2.93;1.00;;;;;;;;;;5029233;28;20028;-65